Time;durP1;ratioP1;P1;durP2;ratioP2;P2;SDS_P1;SDS_P2;PMS_P1;PMS_P2;Temp;Humidity;BMP_temperature;BMP_pressure;BME280_temperature;BME280_humidity;BME280_pressure;Samples;Min_cycle;Max_cycle;Signal;HPM_P1;HPM_P2
2021/01/21 00:00:30;;;;;;;6.57;3.90;;;;;;;;;;5024804;28;20251;-83
2021/01/21 00:03:15;;;;;;;8.95;3.70;;;;;;;;;;5026611;28;20022;-83
2021/01/21 00:06:01;;;;;;;7.20;3.28;;;;;;;;;;5032045;28;20120;-84
2021/01/21 00:08:46;;;;;;;9.65;2.97;;;;;;;;;;5009786;28;20054;-84
2021/01/21 00:11:31;;;;;;;5.35;2.85;;;;;;;;;;5012208;28;20048;-83
2021/01/21 00:14:16;;;;;;;8.70;3.40;;;;;;;;;;5009621;28;20392;-85
2021/01/21 00:17:01;;;;;;;5.78;2.67;;;;;;;;;;5006547;28;20499;-84
2021/01/21 00:19:47;;;;;;;6.10;3.08;;;;;;;;;;5006636;28;20100;-85
2021/01/21 00:22:32;;;;;;;8.48;4.20;;;;;;;;;;5009424;28;20105;-85
2021/01/21 00:25:17;;;;;;;7.15;3.38;;;;;;;;;;5011506;28;20048;-86
2021/01/21 00:28:03;;;;;;;5.50;3.00;;;;;;;;;;5010108;28;20042;-85
2021/01/21 00:30:48;;;;;;;6.55;3.45;;;;;;;;;;5006881;28;20417;-85
2021/01/21 00:33:33;;;;;;;6.50;3.42;;;;;;;;;;5006304;28;20033;-85
2021/01/21 00:36:19;;;;;;;5.53;3.40;;;;;;;;;;5008837;28;20021;-85
2021/01/21 00:39:05;;;;;;;7.35;3.40;;;;;;;;;;5008681;28;20032;-84
2021/01/21 00:41:51;;;;;;;8.23;4.38;;;;;;;;;;5007741;28;20026;-85
2021/01/21 00:44:36;;;;;;;8.35;3.40;;;;;;;;;;5004730;28;20457;-85
2021/01/21 00:47:21;;;;;;;7.40;3.60;;;;;;;;;;5004722;28;20034;-84
2021/01/21 00:50:06;;;;;;;7.20;4.03;;;;;;;;;;5010822;28;20029;-84
2021/01/21 00:52:51;;;;;;;7.47;4.13;;;;;;;;;;5006456;28;20100;-84
2021/01/21 00:55:37;;;;;;;7.05;4.28;;;;;;;;;;5018250;28;20025;-84
2021/01/21 00:58:22;;;;;;;7.03;3.72;;;;;;;;;;4999925;28;20483;-84
2021/01/21 01:01:07;;;;;;;8.45;3.85;;;;;;;;;;5006709;28;20090;-84
2021/01/21 01:03:53;;;;;;;8.68;3.75;;;;;;;;;;5006163;28;20054;-85
2021/01/21 01:06:38;;;;;;;7.97;4.10;;;;;;;;;;5011549;28;20055;-84
2021/01/21 01:09:24;;;;;;;5.55;3.72;;;;;;;;;;5033682;28;20060;-85
2021/01/21 01:12:09;;;;;;;6.03;3.33;;;;;;;;;;5038272;28;20030;-85
2021/01/21 01:14:54;;;;;;;10.77;4.10;;;;;;;;;;5032290;28;20091;-85
2021/01/21 01:17:39;;;;;;;7.70;3.90;;;;;;;;;;5026353;28;20028;-84
2021/01/21 01:20:24;;;;;;;7.25;3.60;;;;;;;;;;5028667;28;20091;-84
2021/01/21 01:23:09;;;;;;;6.18;3.38;;;;;;;;;;5028194;28;20021;-85
2021/01/21 01:25:55;;;;;;;8.23;3.58;;;;;;;;;;5039698;28;20037;-84
2021/01/21 01:28:42;;;;;;;5.50;3.20;;;;;;;;;;5030452;28;20035;-85
2021/01/21 01:31:27;;;;;;;7.88;3.55;;;;;;;;;;5031919;28;20036;-84
2021/01/21 01:34:12;;;;;;;9.02;4.07;;;;;;;;;;5028264;28;20551;-85
2021/01/21 01:36:57;;;;;;;8.55;4.05;;;;;;;;;;5029822;28;20027;-85
2021/01/21 01:39:43;;;;;;;8.98;3.80;;;;;;;;;;5030565;28;20062;-86
2021/01/21 01:42:28;;;;;;;9.70;3.80;;;;;;;;;;5018778;28;20024;-85
2021/01/21 01:45:13;;;;;;;8.00;3.53;;;;;;;;;;5035364;28;20029;-85
2021/01/21 01:47:59;;;;;;;6.57;3.72;;;;;;;;;;5035860;28;20232;-85
2021/01/21 01:50:44;;;;;;;7.97;3.90;;;;;;;;;;5031219;28;20100;-85
2021/01/21 01:53:35;;;;;;;5.28;3.03;;;;;;;;;;5033046;28;20017;-85
2021/01/21 01:56:21;;;;;;;11.50;4.78;;;;;;;;;;5033971;28;20036;-85
2021/01/21 01:59:06;;;;;;;7.55;4.75;;;;;;;;;;5023424;28;20029;-85
2021/01/21 02:01:51;;;;;;;15.50;6.65;;;;;;;;;;5033772;28;20033;-85
2021/01/21 02:04:37;;;;;;;9.25;4.47;;;;;;;;;;5035786;28;20048;-86
2021/01/21 02:07:22;;;;;;;9.13;4.20;;;;;;;;;;5034453;28;20499;-86
2021/01/21 02:10:08;;;;;;;6.13;3.45;;;;;;;;;;5037915;28;20031;-85
2021/01/21 02:13:13;;;;;;;7.05;3.92;;;;;;;;;;5033980;28;20525;-85
2021/01/21 02:16:16;;;;;;;7.05;3.88;;;;;;;;;;5030772;28;20080;-85
2021/01/21 02:19:07;;;;;;;8.00;4.15;;;;;;;;;;5041003;28;20019;-85
2021/01/21 02:21:55;;;;;;;7.68;3.40;;;;;;;;;;5038398;28;20756;-85
2021/01/21 02:24:59;;;;;;;4.65;3.00;;;;;;;;;;5034599;28;20053;-85
2021/01/21 02:28:03;;;;;;;5.15;3.08;;;;;;;;;;5032148;28;20037;-84
2021/01/21 02:30:55;;;;;;;9.15;3.70;;;;;;;;;;5033219;28;20111;-84
2021/01/21 02:33:54;;;;;;;6.32;3.20;;;;;;;;;;5034855;28;20021;-84
2021/01/21 02:36:40;;;;;;;5.93;3.65;;;;;;;;;;5030899;28;20380;-85
2021/01/21 02:39:26;;;;;;;6.65;3.53;;;;;;;;;;5044161;28;20033;-85
2021/01/21 02:42:11;;;;;;;7.75;3.67;;;;;;;;;;5038251;28;20024;-85
2021/01/21 02:44:56;;;;;;;4.80;2.65;;;;;;;;;;5038890;28;20090;-84
2021/01/21 02:47:44;;;;;;;6.30;2.97;;;;;;;;;;5040978;28;20026;-85
2021/01/21 02:50:30;;;;;;;6.53;3.05;;;;;;;;;;5048005;28;20020;-85
2021/01/21 02:53:15;;;;;;;5.05;2.53;;;;;;;;;;5046303;28;20032;-83
2021/01/21 02:56:01;;;;;;;4.13;2.33;;;;;;;;;;5037665;28;20055;-84
2021/01/21 02:58:47;;;;;;;2.95;1.88;;;;;;;;;;5037657;28;20064;-84
2021/01/21 03:01:35;;;;;;;4.78;1.80;;;;;;;;;;5038186;28;20120;-84
2021/01/21 03:04:22;;;;;;;2.17;1.50;;;;;;;;;;5033920;28;20375;-84
2021/01/21 03:07:14;;;;;;;2.28;1.40;;;;;;;;;;5029943;28;20045;-85
2021/01/21 03:09:59;;;;;;;4.88;2.40;;;;;;;;;;5030943;28;20028;-84
2021/01/21 03:12:55;;;;;;;6.25;1.85;;;;;;;;;;5031518;28;20106;-85
2021/01/21 03:15:40;;;;;;;4.57;2.33;;;;;;;;;;5029971;28;20033;-85
2021/01/21 03:18:25;;;;;;;3.47;1.95;;;;;;;;;;5028449;28;20025;-84
2021/01/21 03:21:10;;;;;;;2.63;1.60;;;;;;;;;;5031504;28;20029;-84
2021/01/21 03:23:56;;;;;;;5.22;2.20;;;;;;;;;;5032529;28;20414;-85
2021/01/21 03:26:41;;;;;;;4.80;1.75;;;;;;;;;;5033470;28;20062;-85
2021/01/21 03:29:27;;;;;;;5.22;2.20;;;;;;;;;;5028332;28;20033;-85
2021/01/21 03:32:12;;;;;;;2.50;1.75;;;;;;;;;;5028686;28;20437;-85
2021/01/21 03:34:58;;;;;;;3.67;1.50;;;;;;;;;;5027035;28;20506;-85
2021/01/21 03:37:43;;;;;;;6.78;1.50;;;;;;;;;;5029404;28;20068;-85
2021/01/21 03:40:28;;;;;;;3.42;1.67;;;;;;;;;;5030866;28;20018;-85
2021/01/21 03:43:14;;;;;;;2.53;1.50;;;;;;;;;;5028079;28;20544;-85
2021/01/21 03:45:59;;;;;;;1.50;1.30;;;;;;;;;;5022865;28;20379;-85
2021/01/21 03:48:44;;;;;;;4.05;2.10;;;;;;;;;;5029329;28;20022;-86
2021/01/21 03:51:29;;;;;;;2.58;1.75;;;;;;;;;;5035116;28;20025;-86
2021/01/21 03:54:15;;;;;;;2.60;1.40;;;;;;;;;;5040540;28;20566;-85
2021/01/21 03:57:00;;;;;;;1.85;1.40;;;;;;;;;;5029443;28;20036;-85
2021/01/21 03:59:45;;;;;;;5.13;1.70;;;;;;;;;;5030494;28;20094;-84
2021/01/21 04:02:30;;;;;;;4.57;2.25;;;;;;;;;;5027750;28;20104;-85
2021/01/21 04:05:15;;;;;;;4.10;2.25;;;;;;;;;;5029500;28;20056;-86
2021/01/21 04:08:00;;;;;;;4.32;1.70;;;;;;;;;;5028783;28;20037;-85
2021/01/21 04:10:46;;;;;;;5.32;1.98;;;;;;;;;;5033864;28;20045;-85
2021/01/21 04:13:31;;;;;;;7.03;3.15;;;;;;;;;;5024539;28;20036;-84
2021/01/21 04:16:16;;;;;;;2.13;1.90;;;;;;;;;;5028844;28;20433;-84
2021/01/21 04:19:02;;;;;;;3.22;1.70;;;;;;;;;;5031183;28;20068;-86
2021/01/21 04:21:47;;;;;;;2.83;1.85;;;;;;;;;;5028047;28;20100;-85
2021/01/21 04:24:32;;;;;;;3.80;2.00;;;;;;;;;;5031254;28;20044;-85
2021/01/21 04:27:18;;;;;;;2.85;1.70;;;;;;;;;;5026699;28;20140;-85
2021/01/21 04:30:03;;;;;;;2.38;1.67;;;;;;;;;;5025479;28;20021;-84
2021/01/21 04:32:48;;;;;;;5.95;2.95;;;;;;;;;;5031345;28;20062;-84
2021/01/21 04:35:34;;;;;;;4.63;1.50;;;;;;;;;;5028248;28;20033;-84
2021/01/21 04:38:19;;;;;;;2.15;1.90;;;;;;;;;;5032819;28;20048;-85
2021/01/21 04:41:04;;;;;;;4.20;1.70;;;;;;;;;;5027361;28;20024;-85
2021/01/21 04:43:49;;;;;;;3.40;1.33;;;;;;;;;;5031376;28;20029;-85
2021/01/21 04:46:35;;;;;;;4.43;1.40;;;;;;;;;;5027715;28;20071;-85
2021/01/21 04:49:20;;;;;;;2.75;1.30;;;;;;;;;;5031483;28;20029;-84
2021/01/21 04:52:07;;;;;;;2.53;1.58;;;;;;;;;;5026905;28;20056;-85
2021/01/21 04:54:56;;;;;;;2.95;1.40;;;;;;;;;;5025689;28;20038;-84
2021/01/21 04:57:47;;;;;;;1.70;1.30;;;;;;;;;;5036159;28;20044;-85
2021/01/21 05:00:32;;;;;;;7.38;1.25;;;;;;;;;;5038624;28;20038;-85
2021/01/21 05:03:18;;;;;;;1.92;1.15;;;;;;;;;;5031606;28;20036;-85
2021/01/21 05:06:04;;;;;;;4.30;1.58;;;;;;;;;;5034863;28;20371;-86
2021/01/21 05:08:50;;;;;;;3.08;1.35;;;;;;;;;;5024811;28;20160;-86
2021/01/21 05:11:35;;;;;;;6.07;1.45;;;;;;;;;;5028409;28;20376;-86
2021/01/21 05:14:20;;;;;;;3.15;1.20;;;;;;;;;;5030052;28;20029;-86
2021/01/21 05:17:06;;;;;;;2.88;1.40;;;;;;;;;;5027872;28;20087;-85
2021/01/21 05:19:54;;;;;;;6.97;1.10;;;;;;;;;;5029353;28;20503;-84
2021/01/21 05:22:39;;;;;;;1.75;1.30;;;;;;;;;;5021842;28;20155;-85
2021/01/21 05:25:25;;;;;;;2.88;1.30;;;;;;;;;;5024871;28;20088;-85
2021/01/21 05:28:11;;;;;;;4.43;1.30;;;;;;;;;;5029473;28;20021;-84
2021/01/21 05:31:00;;;;;;;3.40;1.45;;;;;;;;;;5025104;28;20028;-84
2021/01/21 05:33:45;;;;;;;3.75;1.17;;;;;;;;;;5025403;28;20463;-83
2021/01/21 05:36:42;;;;;;;4.32;1.80;;;;;;;;;;5024974;28;20036;-85
2021/01/21 05:39:34;;;;;;;3.90;1.73;;;;;;;;;;5020805;28;20021;-86
2021/01/21 05:42:19;;;;;;;2.50;1.42;;;;;;;;;;5027266;28;20018;-85
2021/01/21 05:45:05;;;;;;;2.97;1.30;;;;;;;;;;5025889;28;20017;-85
2021/01/21 05:47:54;;;;;;;2.63;1.30;;;;;;;;;;5027315;28;20036;-85
2021/01/21 05:50:40;;;;;;;2.05;1.40;;;;;;;;;;5027662;28;20445;-85
2021/01/21 05:53:25;;;;;;;3.30;1.65;;;;;;;;;;5019977;28;20047;-84
2021/01/21 05:56:11;;;;;;;1.80;1.10;;;;;;;;;;5022743;28;20029;-85
2021/01/21 05:58:56;;;;;;;2.72;1.10;;;;;;;;;;5027301;28;20029;-86
2021/01/21 06:01:42;;;;;;;4.65;1.20;;;;;;;;;;5026726;28;20039;-85
2021/01/21 06:04:28;;;;;;;2.13;1.15;;;;;;;;;;5024207;28;20025;-85
2021/01/21 06:07:13;;;;;;;5.25;1.30;;;;;;;;;;5027327;28;20767;-85
2021/01/21 06:09:59;;;;;;;3.47;1.50;;;;;;;;;;5027723;28;20624;-84
2021/01/21 06:12:45;;;;;;;2.80;1.50;;;;;;;;;;5030215;28;20049;-86
2021/01/21 06:15:30;;;;;;;1.88;1.30;;;;;;;;;;5030655;28;20037;-87
2021/01/21 06:18:16;;;;;;;5.85;1.70;;;;;;;;;;5028487;28;20104;-86
2021/01/21 06:21:01;;;;;;;6.07;2.03;;;;;;;;;;5027647;28;20030;-86
2021/01/21 06:23:49;;;;;;;2.90;1.50;;;;;;;;;;5031473;28;20021;-86
2021/01/21 06:26:41;;;;;;;3.25;1.60;;;;;;;;;;5023073;28;20112;-85
2021/01/21 06:29:27;;;;;;;5.30;1.63;;;;;;;;;;5037713;28;20380;-85
2021/01/21 06:32:14;;;;;;;3.78;1.80;;;;;;;;;;5025458;28;20021;-85
2021/01/21 06:35:04;;;;;;;6.13;2.03;;;;;;;;;;5031065;28;20075;-85
2021/01/21 06:37:51;;;;;;;6.45;2.15;;;;;;;;;;5033223;28;20033;-86
2021/01/21 06:40:37;;;;;;;4.80;1.40;;;;;;;;;;5029075;28;20647;-84
2021/01/21 06:43:24;;;;;;;7.95;1.90;;;;;;;;;;5026459;28;20079;-86
2021/01/21 06:46:12;;;;;;;5.18;1.65;;;;;;;;;;5029677;28;20108;-85
2021/01/21 06:48:57;;;;;;;8.25;4.80;;;;;;;;;;5024434;28;20056;-82
2021/01/21 06:51:46;;;;;;;3.38;1.85;;;;;;;;;;5026896;28;20496;-82
2021/01/21 06:54:32;;;;;;;3.08;1.60;;;;;;;;;;5040610;28;20379;-82
2021/01/21 06:57:35;;;;;;;5.18;1.35;;;;;;;;;;5024143;28;20045;-82
2021/01/21 07:00:40;;;;;;;4.75;1.85;;;;;;;;;;5029321;28;20040;-82
2021/01/21 07:03:29;;;;;;;4.90;1.40;;;;;;;;;;5029411;28;20026;-81
2021/01/21 07:06:14;;;;;;;3.83;1.30;;;;;;;;;;5025260;28;20171;-81
2021/01/21 07:09:06;;;;;;;5.00;1.70;;;;;;;;;;5014570;28;20101;-82
2021/01/21 07:11:56;;;;;;;4.20;1.20;;;;;;;;;;5026854;28;20025;-82
2021/01/21 07:14:41;;;;;;;3.53;1.05;;;;;;;;;;5029222;28;20030;-81
2021/01/21 07:17:27;;;;;;;3.08;1.50;;;;;;;;;;5021582;28;20026;-82
2021/01/21 07:20:12;;;;;;;9.38;3.63;;;;;;;;;;5031362;28;20063;-82
2021/01/21 07:23:07;;;;;;;5.45;1.50;;;;;;;;;;5028509;28;20074;-82
2021/01/21 07:26:12;;;;;;;2.42;1.08;;;;;;;;;;5027233;28;20021;-83
2021/01/21 07:29:03;;;;;;;3.03;1.75;;;;;;;;;;5026479;28;20057;-83
2021/01/21 07:32:02;;;;;;;1.92;0.80;;;;;;;;;;5028958;28;20397;-82
2021/01/21 07:34:47;;;;;;;2.70;1.00;;;;;;;;;;5031959;28;20044;-83
2021/01/21 07:37:44;;;;;;;2.50;1.00;;;;;;;;;;5025653;28;20029;-82
2021/01/21 07:40:42;;;;;;;2.13;0.90;;;;;;;;;;5030718;28;20431;-82
2021/01/21 07:43:47;;;;;;;1.83;0.90;;;;;;;;;;5042364;28;20021;-81
2021/01/21 07:46:32;;;;;;;2.25;1.00;;;;;;;;;;5038784;28;20060;-81
2021/01/21 07:49:22;;;;;;;2.35;1.08;;;;;;;;;;5027783;28;20021;-81
2021/01/21 07:52:07;;;;;;;2.25;1.10;;;;;;;;;;5027781;28;20025;-81
2021/01/21 07:54:52;;;;;;;4.45;1.30;;;;;;;;;;5029032;28;20026;-82
2021/01/21 07:57:38;;;;;;;1.67;1.00;;;;;;;;;;5031978;28;20136;-82
2021/01/21 08:00:23;;;;;;;2.70;0.93;;;;;;;;;;5015012;28;20075;-80
2021/01/21 08:03:09;;;;;;;1.45;0.90;;;;;;;;;;5028091;28;20037;-82
2021/01/21 08:06:04;;;;;;;17.65;9.80;;;;;;;;;;5031382;28;20029;-81
2021/01/21 08:08:51;;;;;;;5.57;0.93;;;;;;;;;;5012519;28;20041;-78
2021/01/21 08:11:36;;;;;;;2.17;0.98;;;;;;;;;;5033037;28;20034;-78
2021/01/21 08:14:22;;;;;;;1.75;1.15;;;;;;;;;;5026533;28;20029;-78
2021/01/21 08:17:07;;;;;;;1.98;0.85;;;;;;;;;;5028969;28;20037;-78
2021/01/21 08:19:52;;;;;;;2.72;1.15;;;;;;;;;;5028009;28;20033;-78
2021/01/21 08:22:53;;;;;;;2.38;0.90;;;;;;;;;;5023826;28;20030;-78
2021/01/21 08:25:39;;;;;;;2.65;1.08;;;;;;;;;;5025861;28;20108;-77
2021/01/21 08:28:25;;;;;;;1.83;1.10;;;;;;;;;;5027905;28;20033;-79
2021/01/21 08:31:11;;;;;;;3.45;0.98;;;;;;;;;;5029643;28;20034;-78
2021/01/21 08:33:56;;;;;;;4.68;1.10;;;;;;;;;;5024689;28;20097;-79
2021/01/21 08:36:42;;;;;;;3.55;0.98;;;;;;;;;;5024790;28;20030;-79
2021/01/21 08:39:27;;;;;;;1.90;1.02;;;;;;;;;;5029021;28;20017;-80
2021/01/21 08:42:13;;;;;;;3.10;1.00;;;;;;;;;;5028735;28;20033;-80
2021/01/21 08:44:58;;;;;;;2.58;1.20;;;;;;;;;;5025929;28;20021;-82
2021/01/21 08:47:45;;;;;;;1.45;0.90;;;;;;;;;;5021330;28;20021;-82
2021/01/21 08:50:35;;;;;;;2.95;1.10;;;;;;;;;;5027329;28;20017;-80
2021/01/21 08:53:22;;;;;;;3.53;1.20;;;;;;;;;;5029866;28;20021;-80
2021/01/21 08:56:12;;;;;;;3.15;1.20;;;;;;;;;;5023911;28;20065;-80
2021/01/21 08:58:57;;;;;;;1.95;0.90;;;;;;;;;;5027178;28;20025;-78
2021/01/21 09:01:43;;;;;;;2.00;0.93;;;;;;;;;;5025711;28;20069;-79
2021/01/21 09:04:30;;;;;;;2.70;1.10;;;;;;;;;;5030395;28;20009;-78
2021/01/21 09:07:23;;;;;;;3.15;1.20;;;;;;;;;;5026136;28;20115;-78
2021/01/21 09:10:09;;;;;;;1.88;0.90;;;;;;;;;;5039023;28;20040;-79
2021/01/21 09:13:01;;;;;;;1.92;1.05;;;;;;;;;;5026388;28;20116;-79
2021/01/21 09:15:52;;;;;;;2.47;1.10;;;;;;;;;;5034485;28;20021;-80
2021/01/21 09:18:47;;;;;;;3.58;1.20;;;;;;;;;;5024262;28;20033;-78
2021/01/21 09:21:32;;;;;;;2.03;1.10;;;;;;;;;;5028997;28;20531;-78
2021/01/21 09:24:17;;;;;;;2.58;0.95;;;;;;;;;;5026952;28;20161;-79
2021/01/21 09:27:13;;;;;;;2.35;1.00;;;;;;;;;;5025250;28;20116;-85
2021/01/21 09:29:59;;;;;;;6.53;3.42;;;;;;;;;;5037879;28;20236;-79
2021/01/21 09:32:44;;;;;;;9.02;4.55;;;;;;;;;;5023855;28;20932;-79
2021/01/21 09:35:30;;;;;;;4.25;1.33;;;;;;;;;;5026351;28;20079;-80
2021/01/21 09:38:15;;;;;;;5.45;1.20;;;;;;;;;;5025237;28;20485;-81
2021/01/21 09:41:00;;;;;;;2.78;1.00;;;;;;;;;;5026764;28;20527;-79
2021/01/21 09:43:46;;;;;;;1.83;0.98;;;;;;;;;;5021678;28;20032;-80
2021/01/21 09:46:31;;;;;;;1.25;0.90;;;;;;;;;;5025346;28;20067;-80
2021/01/21 09:49:16;;;;;;;1.67;1.27;;;;;;;;;;5018997;28;20116;-80
2021/01/21 09:52:05;;;;;;;3.13;0.90;;;;;;;;;;5027648;28;20032;-80
2021/01/21 09:54:50;;;;;;;1.30;0.93;;;;;;;;;;5033343;28;20025;-80
2021/01/21 09:57:36;;;;;;;1.75;0.95;;;;;;;;;;5026148;28;20053;-81
2021/01/21 10:00:21;;;;;;;4.05;0.90;;;;;;;;;;5025727;28;20049;-81
2021/01/21 10:03:06;;;;;;;2.63;1.00;;;;;;;;;;5027626;28;20111;-80
2021/01/21 10:05:51;;;;;;;3.03;1.45;;;;;;;;;;5027386;28;20031;-80
2021/01/21 10:08:37;;;;;;;3.20;1.95;;;;;;;;;;5026257;28;20407;-80
2021/01/21 10:11:22;;;;;;;2.10;0.80;;;;;;;;;;5031190;28;20451;-81
2021/01/21 10:14:07;;;;;;;6.25;1.30;;;;;;;;;;5025298;28;20021;-81
2021/01/21 10:16:53;;;;;;;2.20;1.00;;;;;;;;;;5026090;28;20458;-79
2021/01/21 10:19:38;;;;;;;3.20;0.90;;;;;;;;;;5024361;28;20021;-80
2021/01/21 10:22:23;;;;;;;1.65;1.02;;;;;;;;;;5027205;28;20033;-79
2021/01/21 10:25:09;;;;;;;0.95;0.85;;;;;;;;;;5026433;28;20670;-80
2021/01/21 10:27:54;;;;;;;1.60;0.90;;;;;;;;;;5029424;28;20508;-80
2021/01/21 10:30:39;;;;;;;2.03;1.00;;;;;;;;;;5026163;28;20041;-80
2021/01/21 10:33:24;;;;;;;4.63;1.15;;;;;;;;;;5027548;28;20444;-80
2021/01/21 10:36:10;;;;;;;4.50;1.60;;;;;;;;;;5023512;28;20071;-80
2021/01/21 10:38:55;;;;;;;5.22;2.67;;;;;;;;;;5027188;28;20049;-80
2021/01/21 10:41:41;;;;;;;3.33;1.33;;;;;;;;;;5025739;28;20053;-80
2021/01/21 10:44:26;;;;;;;2.83;1.30;;;;;;;;;;5025744;28;20361;-80
2021/01/21 10:47:11;;;;;;;1.42;1.00;;;;;;;;;;5028226;28;20038;-80
2021/01/21 10:49:56;;;;;;;3.38;1.45;;;;;;;;;;5027651;28;20361;-80
2021/01/21 10:52:41;;;;;;;1.60;0.85;;;;;;;;;;5028693;28;20476;-80
2021/01/21 10:55:27;;;;;;;3.05;1.25;;;;;;;;;;5023319;28;20069;-79
2021/01/21 10:58:13;;;;;;;1.70;1.20;;;;;;;;;;5020859;28;20400;-79
2021/01/21 11:00:59;;;;;;;1.35;0.95;;;;;;;;;;5034049;28;20082;-80
2021/01/21 11:03:44;;;;;;;1.67;0.93;;;;;;;;;;5027832;28;20034;-79
2021/01/21 11:06:29;;;;;;;2.28;1.20;;;;;;;;;;5030266;28;20112;-79
2021/01/21 11:09:15;;;;;;;6.68;4.32;;;;;;;;;;5032745;28;20058;-79
2021/01/21 11:12:00;;;;;;;16.38;8.02;;;;;;;;;;5032705;28;20531;-80
2021/01/21 11:14:48;;;;;;;2.38;1.70;;;;;;;;;;5037477;28;20029;-80
2021/01/21 11:17:33;;;;;;;3.20;1.55;;;;;;;;;;5029963;28;20037;-78
2021/01/21 11:20:18;;;;;;;1.85;1.20;;;;;;;;;;5036591;28;20440;-79
2021/01/21 11:23:04;;;;;;;1.40;1.02;;;;;;;;;;5034232;28;20028;-79
2021/01/21 11:25:49;;;;;;;3.60;1.20;;;;;;;;;;5029785;28;20057;-79
2021/01/21 11:28:34;;;;;;;2.03;1.23;;;;;;;;;;5030789;28;20036;-80
2021/01/21 11:31:19;;;;;;;2.90;1.20;;;;;;;;;;5032185;28;20435;-79
2021/01/21 11:34:05;;;;;;;3.22;1.50;;;;;;;;;;5033860;28;20379;-80
2021/01/21 11:36:50;;;;;;;2.45;1.00;;;;;;;;;;5033835;28;20042;-79
2021/01/21 11:39:36;;;;;;;2.10;1.20;;;;;;;;;;5035462;28;20116;-79
2021/01/21 11:42:21;;;;;;;3.08;1.10;;;;;;;;;;5036581;28;20028;-79
2021/01/21 11:45:07;;;;;;;1.05;0.95;;;;;;;;;;5035650;28;20036;-80
2021/01/21 11:47:52;;;;;;;1.92;1.30;;;;;;;;;;5035625;28;20037;-79
2021/01/21 11:50:39;;;;;;;2.47;1.27;;;;;;;;;;5035854;28;20041;-79
2021/01/21 11:53:24;;;;;;;2.38;1.20;;;;;;;;;;5026662;28;20017;-80
2021/01/21 11:56:10;;;;;;;2.55;1.35;;;;;;;;;;5031233;28;20419;-78
2021/01/21 11:58:55;;;;;;;1.65;1.20;;;;;;;;;;5032907;28;20029;-78
2021/01/21 12:01:41;;;;;;;6.15;1.63;;;;;;;;;;5030189;28;20021;-79
2021/01/21 12:04:26;;;;;;;2.17;1.40;;;;;;;;;;5031331;28;20501;-79
2021/01/21 12:07:11;;;;;;;2.40;1.83;;;;;;;;;;5031397;28;20052;-78
2021/01/21 12:09:56;;;;;;;1.88;1.20;;;;;;;;;;5033362;28;20133;-78
2021/01/21 12:12:45;;;;;;;4.60;2.28;;;;;;;;;;5034535;28;20025;-78
2021/01/21 12:15:30;;;;;;;5.55;2.45;;;;;;;;;;5034629;28;20024;-78
2021/01/21 12:18:15;;;;;;;1.40;1.20;;;;;;;;;;5034174;28;20387;-77
2021/01/21 12:21:01;;;;;;;1.50;1.10;;;;;;;;;;5035052;28;20275;-79
2021/01/21 12:23:46;;;;;;;4.30;1.38;;;;;;;;;;5029590;28;20353;-80
2021/01/21 12:26:31;;;;;;;2.25;1.42;;;;;;;;;;5033146;28;20136;-82
2021/01/21 12:29:16;;;;;;;3.00;1.38;;;;;;;;;;5036026;28;20085;-78
2021/01/21 12:32:02;;;;;;;2.13;1.33;;;;;;;;;;5035157;28;20036;-79
2021/01/21 12:34:47;;;;;;;4.22;1.30;;;;;;;;;;5029170;28;20364;-78
2021/01/21 12:37:32;;;;;;;3.28;1.40;;;;;;;;;;5033755;28;20035;-78
2021/01/21 12:40:17;;;;;;;2.08;1.20;;;;;;;;;;5035877;28;20027;-78
2021/01/21 12:43:03;;;;;;;3.65;1.30;;;;;;;;;;5033958;28;20033;-78
2021/01/21 12:45:49;;;;;;;2.58;1.23;;;;;;;;;;5035738;28;20028;-78
2021/01/21 12:48:35;;;;;;;1.23;0.98;;;;;;;;;;5033784;28;20040;-78
2021/01/21 12:51:20;;;;;;;2.10;1.00;;;;;;;;;;5031993;28;20032;-77
2021/01/21 12:54:05;;;;;;;2.60;1.33;;;;;;;;;;5034727;28;20058;-79
2021/01/21 12:56:50;;;;;;;1.73;1.20;;;;;;;;;;5036545;28;20094;-79
2021/01/21 12:59:36;;;;;;;2.38;1.13;;;;;;;;;;5018509;28;20032;-78
2021/01/21 13:02:21;;;;;;;3.42;1.15;;;;;;;;;;5035259;28;20013;-78
2021/01/21 13:05:06;;;;;;;2.50;1.33;;;;;;;;;;5031489;28;20020;-78
2021/01/21 13:07:52;;;;;;;2.40;1.10;;;;;;;;;;5031358;28;20404;-78
2021/01/21 13:10:37;;;;;;;1.83;1.10;;;;;;;;;;5031841;28;20032;-79
2021/01/21 13:13:25;;;;;;;3.53;1.35;;;;;;;;;;5021612;28;20033;-78
2021/01/21 13:16:10;;;;;;;3.50;1.70;;;;;;;;;;5037261;28;20027;-78
2021/01/21 13:18:56;;;;;;;9.05;5.32;;;;;;;;;;5035250;28;20040;-80
2021/01/21 13:21:43;;;;;;;3.67;1.52;;;;;;;;;;5034298;28;20194;-79
2021/01/21 13:24:28;;;;;;;1.85;1.40;;;;;;;;;;5029891;28;20040;-78
2021/01/21 13:27:13;;;;;;;1.63;1.15;;;;;;;;;;5031191;28;20433;-79
2021/01/21 13:29:58;;;;;;;2.67;1.45;;;;;;;;;;5029703;28;20017;-79
2021/01/21 13:32:47;;;;;;;1.60;0.90;;;;;;;;;;5032305;28;20041;-80
2021/01/21 13:35:35;;;;;;;2.85;1.17;;;;;;;;;;5035948;28;20021;-80
2021/01/21 13:38:20;;;;;;;1.48;1.17;;;;;;;;;;5032573;28;20052;-78
2021/01/21 13:41:06;;;;;;;3.35;1.20;;;;;;;;;;5036786;28;20029;-78
2021/01/21 13:43:51;;;;;;;2.55;1.20;;;;;;;;;;5038011;28;20021;-79
2021/01/21 13:46:36;;;;;;;2.55;1.20;;;;;;;;;;5033233;28;20055;-78
2021/01/21 13:49:22;;;;;;;2.40;1.30;;;;;;;;;;5033347;28;20035;-78
2021/01/21 13:52:07;;;;;;;2.28;1.20;;;;;;;;;;5033766;28;20506;-78
2021/01/21 13:54:52;;;;;;;0.80;0.80;;;;;;;;;;5035452;28;20499;-79
2021/01/21 13:57:37;;;;;;;1.70;1.15;;;;;;;;;;5035144;28;20024;-80
2021/01/21 14:00:23;;;;;;;1.13;1.00;;;;;;;;;;5031176;28;20029;-79
2021/01/21 14:03:08;;;;;;;2.15;1.30;;;;;;;;;;5035731;28;20024;-79
2021/01/21 14:05:53;;;;;;;1.38;1.10;;;;;;;;;;5032826;28;20036;-79
2021/01/21 14:08:38;;;;;;;1.17;0.95;;;;;;;;;;5030887;28;20049;-80
2021/01/21 14:11:24;;;;;;;3.00;1.02;;;;;;;;;;5031987;28;20021;-78
2021/01/21 14:14:09;;;;;;;1.50;0.90;;;;;;;;;;5030498;28;20027;-79
2021/01/21 14:16:54;;;;;;;1.88;0.88;;;;;;;;;;5032023;28;20027;-78
2021/01/21 14:19:39;;;;;;;15.98;8.80;;;;;;;;;;5030539;28;20140;-79
2021/01/21 14:22:24;;;;;;;1.52;1.20;;;;;;;;;;5024921;28;20488;-80
2021/01/21 14:25:10;;;;;;;1.30;1.10;;;;;;;;;;5030022;28;20742;-80
2021/01/21 14:27:55;;;;;;;1.20;0.95;;;;;;;;;;5034198;28;20907;-78
2021/01/21 14:30:40;;;;;;;2.38;1.08;;;;;;;;;;5038322;28;20025;-78
2021/01/21 14:33:26;;;;;;;1.92;1.00;;;;;;;;;;5028070;28;20427;-80
2021/01/21 14:36:11;;;;;;;3.95;2.70;;;;;;;;;;5036831;28;20441;-79
2021/01/21 14:39:00;;;;;;;1.92;1.23;;;;;;;;;;5035449;28;20084;-79
2021/01/21 14:41:45;;;;;;;3.35;1.00;;;;;;;;;;5037386;28;20418;-79
2021/01/21 14:44:30;;;;;;;3.83;1.98;;;;;;;;;;5033480;28;20781;-79
2021/01/21 14:47:15;;;;;;;2.78;1.60;;;;;;;;;;5036916;28;20498;-79
2021/01/21 14:50:01;;;;;;;4.40;1.10;;;;;;;;;;5034427;28;20037;-78
2021/01/21 14:52:51;;;;;;;1.42;1.17;;;;;;;;;;5034055;28;20091;-78
2021/01/21 14:55:37;;;;;;;1.83;1.02;;;;;;;;;;5031255;28;20029;-79
2021/01/21 14:58:23;;;;;;;3.72;1.00;;;;;;;;;;5033664;28;20047;-79
2021/01/21 15:01:09;;;;;;;1.05;0.82;;;;;;;;;;5034955;28;20111;-77
2021/01/21 15:03:55;;;;;;;3.35;0.90;;;;;;;;;;5033986;28;20032;-80
2021/01/21 15:06:40;;;;;;;2.33;1.10;;;;;;;;;;5033395;28;20384;-77
2021/01/21 15:09:25;;;;;;;2.83;1.23;;;;;;;;;;5037183;28;20607;-77
2021/01/21 15:12:10;;;;;;;3.33;1.10;;;;;;;;;;5036507;28;20033;-78
2021/01/21 15:14:59;;;;;;;3.42;1.20;;;;;;;;;;5018035;28;20143;-77
2021/01/21 15:17:44;;;;;;;2.45;1.45;;;;;;;;;;5028512;28;20547;-78
2021/01/21 15:20:29;;;;;;;2.00;1.20;;;;;;;;;;5032690;28;20063;-78
2021/01/21 15:23:14;;;;;;;1.85;1.20;;;;;;;;;;5033670;28;20096;-78
2021/01/21 15:26:00;;;;;;;2.15;1.35;;;;;;;;;;5034262;28;20031;-77
2021/01/21 15:28:45;;;;;;;3.17;1.67;;;;;;;;;;5036918;28;20036;-79
2021/01/21 15:31:30;;;;;;;2.67;1.15;;;;;;;;;;5035996;28;20048;-78
2021/01/21 15:34:16;;;;;;;2.05;1.20;;;;;;;;;;5028686;28;20072;-78
2021/01/21 15:37:01;;;;;;;1.40;1.05;;;;;;;;;;5032203;28;20418;-79
2021/01/21 15:39:47;;;;;;;15.95;10.13;;;;;;;;;;5035557;28;20035;-79
2021/01/21 15:42:32;;;;;;;17.00;11.32;;;;;;;;;;5030770;28;20044;-79
2021/01/21 15:45:17;;;;;;;6.13;3.63;;;;;;;;;;5033200;28;20028;-79
2021/01/21 15:48:03;;;;;;;4.93;2.60;;;;;;;;;;5030473;28;20036;-79
2021/01/21 15:50:48;;;;;;;3.70;1.20;;;;;;;;;;5033690;28;20044;-79
2021/01/21 15:53:33;;;;;;;2.47;1.77;;;;;;;;;;5029066;28;20024;-79
2021/01/21 15:56:18;;;;;;;4.70;3.20;;;;;;;;;;5034893;28;20193;-79
2021/01/21 15:59:04;;;;;;;4.10;2.90;;;;;;;;;;5031003;28;20025;-79
2021/01/21 16:01:49;;;;;;;3.97;2.60;;;;;;;;;;5029118;28;20020;-79
2021/01/21 16:04:34;;;;;;;7.35;3.08;;;;;;;;;;5034778;28;20036;-80
2021/01/21 16:07:19;;;;;;;6.68;2.47;;;;;;;;;;5029052;28;20048;-79
2021/01/21 16:10:05;;;;;;;4.07;2.42;;;;;;;;;;5029555;28;20104;-79
2021/01/21 16:12:50;;;;;;;4.88;2.42;;;;;;;;;;5034081;28;20082;-80
2021/01/21 16:15:35;;;;;;;2.45;1.55;;;;;;;;;;5031528;28;20071;-79
2021/01/21 16:18:21;;;;;;;4.50;2.50;;;;;;;;;;5037525;28;20103;-78
2021/01/21 16:21:06;;;;;;;3.17;2.03;;;;;;;;;;5034977;28;20432;-82
2021/01/21 16:23:51;;;;;;;5.03;2.53;;;;;;;;;;5025740;28;20016;-79
2021/01/21 16:26:37;;;;;;;3.55;2.00;;;;;;;;;;5034028;28;20029;-79
2021/01/21 16:29:22;;;;;;;4.68;2.40;;;;;;;;;;5032089;28;20025;-79
2021/01/21 16:32:07;;;;;;;3.80;2.10;;;;;;;;;;5034425;28;20112;-79
2021/01/21 16:34:52;;;;;;;2.65;1.75;;;;;;;;;;5027890;28;20405;-79
2021/01/21 16:37:38;;;;;;;25.05;16.45;;;;;;;;;;5030331;28;20540;-79